createdAt,value
2022-12-26T06:49:20.020Z,96263.94
2022-12-26T06:59:17.796Z,96259.53
2022-12-26T07:09:20.431Z,96278.19
2022-12-26T07:19:18.126Z,96268.66
2022-12-26T07:29:17.211Z,96281.09
2022-12-26T07:39:15.426Z,96288.63
2022-12-26T07:49:14.894Z,96275.88
2022-12-26T07:59:14.133Z,96301.84
2022-12-26T08:09:16.374Z,96292.13
2022-12-26T08:19:14.086Z,96293.00
2022-12-26T08:29:13.153Z,96322.28
2022-12-26T08:39:10.839Z,96311.22
2022-12-26T08:49:10.474Z,96330.75
2022-12-26T08:59:08.172Z,96402.44
2022-12-26T09:09:07.960Z,96397.38
2022-12-26T09:19:06.712Z,96402.72
2022-12-26T09:29:06.009Z,96397.69
2022-12-26T09:39:03.656Z,96434.16
2022-12-26T09:49:07.717Z,96452.50
2022-12-26T09:59:08.124Z,96468.97
2022-12-26T10:09:15.825Z,96474.44
2022-12-26T10:19:20.015Z,96489.41
2022-12-26T10:29:21.062Z,96497.28
2022-12-26T10:39:22.246Z,96483.25
2022-12-26T10:49:23.001Z,96491.38
2022-12-26T10:59:22.068Z,96492.44
2022-12-26T11:09:29.831Z,96479.22
2022-12-26T11:19:27.871Z,96458.41
2022-12-26T11:29:26.905Z,96470.31
2022-12-26T11:39:28.234Z,96482.19
2022-12-26T11:49:30.263Z,96443.56
2022-12-26T11:59:30.061Z,96420.81
2022-12-26T12:09:34.614Z,96454.59
2022-12-26T12:19:42.635Z,96474.31
2022-12-26T12:29:48.966Z,96444.06
2022-12-26T12:39:50.996Z,96438.66
2022-12-26T12:49:59.264Z,96443.28
2022-12-26T13:00:12.522Z,96437.06
2022-12-26T13:10:17.883Z,96445.72
2022-12-26T13:20:17.028Z,96438.72
2022-12-26T13:30:16.880Z,96419.25
2022-12-26T13:40:17.594Z,96430.84
2022-12-26T13:50:30.154Z,96412.19
2022-12-26T14:00:42.358Z,96418.97
2022-12-26T14:10:43.237Z,96425.47
2022-12-26T14:20:45.982Z,96419.56
2022-12-26T14:30:54.911Z,96399.00
2022-12-26T14:41:01.815Z,96415.16
2022-12-26T14:51:14.381Z,96386.66
2022-12-26T15:01:31.051Z,96389.38
2022-12-26T15:11:38.399Z,96358.03
2022-12-26T15:21:47.317Z,96379.00
2022-12-26T15:32:03.598Z,96415.72
2022-12-26T15:42:06.441Z,96400.69
2022-12-26T15:52:19.598Z,96401.94
2022-12-26T16:02:33.091Z,96380.72
2022-12-26T16:12:34.141Z,96401.09
2022-12-26T16:22:47.756Z,96396.47
2022-12-26T16:32:47.288Z,96403.19
2022-12-26T16:42:46.203Z,96430.69
2022-12-26T16:52:46.902Z,96436.97
2022-12-26T17:04:18.765Z,96410.66
2022-12-26T17:25:51.010Z,96446.19
2022-12-26T17:36:44.639Z,96447.59
2022-12-26T17:49:00.722Z,96505.72
2022-12-26T17:50:41.124Z,96491.91
2022-12-26T17:52:21.920Z,96506.09
2022-12-26T17:53:59.888Z,96500.66
2022-12-26T17:55:37.894Z,96509.97
2022-12-26T17:57:21.377Z,96510.56
2022-12-26T17:58:59.278Z,96508.47
2022-12-26T18:09:50.463Z,96527.59
2022-12-26T18:19:49.526Z,96548.22
2022-12-26T18:31:51.238Z,96571.53
2022-12-26T18:41:49.165Z,96558.91
2022-12-26T18:51:48.552Z,96597.41
2022-12-26T19:01:46.727Z,96593.63
2022-12-26T19:11:48.253Z,96583.81
2022-12-26T19:21:46.162Z,96600.81
2022-12-26T19:31:45.476Z,96610.25
2022-12-26T19:41:45.884Z,96631.09
2022-12-26T19:51:45.157Z,96673.63
2022-12-26T20:01:43.118Z,96687.75
2022-12-26T20:11:44.688Z,96714.63
2022-12-26T20:21:44.857Z,96723.53
2022-12-26T20:31:44.129Z,96748.72
2022-12-26T20:41:42.140Z,96765.78
2022-12-26T20:51:43.690Z,96787.72
2022-12-26T21:01:41.682Z,96812.34
2022-12-26T21:11:42.720Z,96848.13
2022-12-26T21:21:43.627Z,96876.59
2022-12-26T21:31:43.017Z,96882.84
2022-12-26T21:41:43.212Z,96891.28
2022-12-26T21:51:42.394Z,96900.50
